Time;durP1;ratioP1;P1;durP2;ratioP2;P2;SDS_P1;SDS_P2;PMS_P1;PMS_P2;Temp;Humidity;BMP_temperature;BMP_pressure;BME280_temperature;BME280_humidity;BME280_pressure;Samples;Min_cycle;Max_cycle;Signal;HPM_P1;HPM_P2
2023/10/15 00:01:17;;;;;;;4.33;2.47;;;;;;;19.73;60.27;100541.89;2297069;76;51485;-74
2023/10/15 00:04:20;;;;;;;3.85;2.17;;;;;;;19.73;60.26;100547.27;2205871;77;52594;-75
2023/10/15 00:07:23;;;;;;;3.47;2.20;;;;;;;19.72;60.27;100541.55;2257355;76;22780;-75
2023/10/15 00:10:26;;;;;;;4.15;2.45;;;;;;;19.70;60.27;100538.23;2298769;76;50374;-75
2023/10/15 00:13:28;;;;;;;3.75;2.15;;;;;;;19.72;60.24;100536.70;2232712;77;51653;-75
2023/10/15 00:16:32;;;;;;;3.85;2.33;;;;;;;19.71;60.20;100535.87;2277468;77;50799;-75
2023/10/15 00:19:35;;;;;;;4.05;2.10;;;;;;;19.70;60.19;100534.20;2298779;76;50307;-74
2023/10/15 00:22:38;;;;;;;3.55;2.40;;;;;;;19.70;60.19;100538.23;2257001;77;51523;-74
2023/10/15 00:25:47;;;;;;;3.42;2.27;;;;;;;19.71;60.19;100535.87;2257386;76;50271;-75
2023/10/15 00:28:44;;;;;;;3.80;2.20;;;;;;;19.72;60.17;100543.41;2256674;77;22913;-74
2023/10/15 00:31:47;;;;;;;2.90;2.10;;;;;;;19.71;60.15;100549.30;2256437;77;51380;-72
2023/10/15 00:34:49;;;;;;;3.65;2.08;;;;;;;19.69;60.15;100543.29;2282970;76;51608;-72
2023/10/15 00:37:55;;;;;;;3.02;2.05;;;;;;;19.70;60.12;100549.48;2231472;76;51679;-73
2023/10/15 00:41:07;;;;;;;3.00;2.20;;;;;;;19.69;60.14;100556.71;2299078;76;51561;-72
2023/10/15 00:44:09;;;;;;;3.33;2.02;;;;;;;19.69;60.13;100550.00;2297793;76;21936;-72
2023/10/15 00:47:15;;;;;;;3.00;2.10;;;;;;;19.68;60.13;100553.72;2252818;77;22843;-73
2023/10/15 00:50:14;;;;;;;3.12;2.10;;;;;;;19.69;60.11;100555.89;2296664;76;22280;-73
2023/10/15 00:53:24;;;;;;;3.90;2.40;;;;;;;19.68;60.10;100558.23;2298451;77;51511;-73
2023/10/15 00:56:35;;;;;;;3.98;2.12;;;;;;;19.67;60.12;100553.91;2298497;76;49943;-73
2023/10/15 00:59:48;;;;;;;2.77;1.95;;;;;;;19.67;60.12;100557.93;2298590;76;50265;-73
2023/10/15 01:02:51;;;;;;;3.20;2.10;;;;;;;19.66;60.08;100548.19;2255163;77;52384;-73
2023/10/15 01:05:54;;;;;;;3.75;1.95;;;;;;;19.66;60.06;100557.07;2253223;76;51245;-72
2023/10/15 01:08:59;;;;;;;3.75;2.20;;;;;;;19.66;60.08;100555.73;2303078;76;51607;-73
2023/10/15 01:12:19;;;;;;;3.22;2.15;;;;;;;19.65;60.04;100555.42;2255178;78;50447;-72
2023/10/15 01:15:07;;;;;;;3.22;1.80;;;;;;;19.66;60.01;100553.05;2274486;76;22342;-72
2023/10/15 01:18:10;;;;;;;2.35;1.90;;;;;;;19.65;60.01;100558.11;2252491;77;52545;-76
2023/10/15 01:21:16;;;;;;;4.00;2.22;;;;;;;19.64;60.01;100554.27;2277634;76;50606;-73
2023/10/15 01:24:19;;;;;;;4.47;2.02;;;;;;;19.63;59.96;100550.75;2298742;76;22283;-72
2023/10/15 01:27:39;;;;;;;3.72;2.30;;;;;;;19.63;59.98;100548.06;2237450;76;52430;-72
2023/10/15 01:30:34;;;;;;;3.95;2.00;;;;;;;19.63;59.95;100551.27;2289109;76;22078;-74
2023/10/15 01:33:46;;;;;;;2.95;1.82;;;;;;;19.63;59.96;100560.66;2256138;77;22262;-74
2023/10/15 01:36:38;;;;;;;2.98;1.92;;;;;;;19.63;59.94;100565.52;2272965;77;22190;-72
2023/10/15 01:39:45;;;;;;;3.70;2.05;;;;;;;19.63;59.94;100562.83;2275566;77;51541;-73
2023/10/15 01:42:46;;;;;;;3.25;2.10;;;;;;;19.62;59.92;100554.44;2250418;77;22297;-72
2023/10/15 01:45:48;;;;;;;4.20;1.90;;;;;;;19.63;59.90;100560.14;2276094;76;23027;-72
2023/10/15 01:48:50;;;;;;;3.15;2.00;;;;;;;19.62;59.89;100563.84;2250756;77;51476;-73
2023/10/15 01:51:55;;;;;;;4.83;2.00;;;;;;;19.62;59.91;100561.66;2234107;77;51476;-73
2023/10/15 01:55:03;;;;;;;3.45;2.12;;;;;;;19.60;59.90;100565.91;2275946;77;25615;-73
2023/10/15 01:58:00;;;;;;;3.17;1.98;;;;;;;19.61;59.87;100577.47;2258511;77;22367;-73
2023/10/15 02:01:56;;;;;;;2.75;1.72;;;;;;;19.60;59.85;100577.98;2250674;76;50322;-73
2023/10/15 02:04:25;;;;;;;2.30;1.70;;;;;;;19.60;59.84;100571.27;2231858;77;21749;-73
2023/10/15 02:07:30;;;;;;;3.55;1.90;;;;;;;19.60;59.82;100571.27;2275800;77;22955;-72
2023/10/15 02:10:30;;;;;;;3.90;2.02;;;;;;;19.59;59.79;100566.91;2275583;77;22797;-72
2023/10/15 02:13:36;;;;;;;2.25;1.62;;;;;;;19.59;59.80;100565.56;2296461;77;50621;-72
2023/10/15 02:16:37;;;;;;;3.02;1.72;;;;;;;19.58;59.80;100562.06;2275070;77;22375;-71
2023/10/15 02:19:43;;;;;;;4.08;2.02;;;;;;;19.58;59.79;100573.31;2259007;77;51605;-74
2023/10/15 02:22:46;;;;;;;2.90;1.90;;;;;;;19.57;59.75;100566.27;2296636;77;50126;-72
2023/10/15 02:26:01;;;;;;;4.00;2.02;;;;;;;19.58;59.73;100566.60;2251067;76;51524;-73
2023/10/15 02:29:27;;;;;;;3.08;1.80;;;;;;;19.58;59.71;100567.94;2262453;77;51475;-73
2023/10/15 02:32:28;;;;;;;4.22;1.87;;;;;;;19.57;59.72;100572.97;2246841;76;22973;-73
2023/10/15 02:35:31;;;;;;;;;;;;;;;19.56;59.74;100568.64;2257460;76;22690;-73
2023/10/15 02:38:34;;;;;;;3.12;1.90;;;;;;;19.58;59.77;100567.94;2273923;77;22291;-73
2023/10/15 02:41:40;;;;;;;2.87;1.70;;;;;;;19.56;59.69;100576.17;2258817;77;22393;-73
2023/10/15 02:44:38;;;;;;;3.75;1.92;;;;;;;19.56;59.68;100574.01;2273813;76;22407;-74
2023/10/15 02:47:48;;;;;;;3.77;2.30;;;;;;;19.53;59.69;100567.69;2296682;76;50281;-72
2023/10/15 02:51:08;;;;;;;4.15;1.90;;;;;;;19.54;59.67;100565.31;2258671;77;22278;-72
2023/10/15 02:57:29;;;;;;;2.98;1.67;;;;;;;19.51;59.66;100565.70;2264889;77;22308;-72
2023/10/15 03:00:32;;;;;;;3.25;1.80;;;;;;;19.53;59.64;100577.08;2259358;77;23064;-72
2023/10/15 03:03:34;;;;;;;3.00;2.08;;;;;;;19.51;59.66;100569.72;2247605;76;22321;-72
2023/10/15 03:06:41;;;;;;;3.25;1.77;;;;;;;19.51;59.63;100576.43;2298525;76;51518;-72
2023/10/15 03:09:43;;;;;;;3.62;1.80;;;;;;;19.50;59.61;100579.63;2260637;76;22399;-72
2023/10/15 03:12:44;;;;;;;4.15;1.90;;;;;;;19.50;59.62;100570.76;2253297;77;22331;-73
2023/10/15 03:15:52;;;;;;;3.83;1.75;;;;;;;19.49;59.63;100573.92;2252524;76;51551;-73
2023/10/15 03:18:52;;;;;;;4.35;1.87;;;;;;;19.50;59.59;100579.63;2258386;77;22475;-73
2023/10/15 03:21:59;;;;;;;3.83;1.70;;;;;;;19.51;59.53;100579.11;2298540;76;50681;-73
2023/10/15 03:25:02;;;;;;;4.00;2.12;;;;;;;19.50;59.54;100580.15;2275345;77;23114;-73
2023/10/15 03:28:07;;;;;;;4.85;1.85;;;;;;;19.49;59.58;100585.17;2277703;76;50680;-73
2023/10/15 03:31:09;;;;;;;3.05;1.90;;;;;;;19.49;59.55;100581.15;2303214;76;22189;-73
2023/10/15 03:37:15;;;;;;;2.95;1.62;;;;;;;19.47;59.54;100583.19;2259489;77;22351;-73
2023/10/15 03:41:10;;;;;;;3.75;2.10;;;;;;;19.47;59.53;100591.23;2296789;76;51317;-73
2023/10/15 03:43:21;;;;;;;3.22;1.80;;;;;;;19.47;59.54;100588.06;2219065;77;22320;-73
2023/10/15 03:46:25;;;;;;;2.37;1.60;;;;;;;19.47;59.50;100591.23;2275597;77;51486;-73
2023/10/15 03:49:27;;;;;;;4.17;1.85;;;;;;;19.47;59.51;100588.55;2251299;77;50354;-74
2023/10/15 03:52:29;;;;;;;3.02;1.70;;;;;;;19.45;59.49;100583.91;2250543;77;50245;-73
2023/10/15 03:55:32;;;;;;;3.05;2.10;;;;;;;19.45;59.45;100575.34;2296747;76;50202;-73
2023/10/15 03:58:34;;;;;;;3.72;2.10;;;;;;;19.46;59.42;100585.56;2301147;76;51776;-75
2023/10/15 04:01:38;;;;;;;3.50;1.80;;;;;;;19.45;59.45;100581.23;2275919;76;51433;-76
2023/10/15 04:04:40;;;;;;;3.75;1.77;;;;;;;19.45;59.45;100579.89;2260519;77;22188;-73
2023/10/15 04:07:53;;;;;;;3.50;1.77;;;;;;;19.45;59.43;100583.91;2260223;76;50167;-73
2023/10/15 04:10:55;;;;;;;3.15;1.67;;;;;;;19.44;59.46;100583.06;2279449;76;22791;-74
2023/10/15 04:14:04;;;;;;;2.98;1.70;;;;;;;19.44;59.44;100583.58;2252262;77;52864;-72
2023/10/15 04:17:06;;;;;;;3.75;1.80;;;;;;;19.44;59.41;100583.06;2277074;77;22332;-72
2023/10/15 04:20:07;;;;;;;4.40;2.12;;;;;;;19.44;59.42;100578.20;2299605;76;22760;-73
2023/10/15 04:23:30;;;;;;;3.42;1.77;;;;;;;19.42;59.44;100577.08;2302718;76;52635;-75
2023/10/15 04:26:14;;;;;;;3.50;1.77;;;;;;;19.43;59.40;100573.36;2291487;76;22297;-75
2023/10/15 04:29:16;;;;;;;3.85;1.98;;;;;;;19.43;59.39;100568.51;2298621;76;50319;-73
2023/10/15 04:33:08;;;;;;;2.83;1.70;;;;;;;19.43;59.37;100564.48;2240420;77;51550;-73
2023/10/15 04:35:25;;;;;;;3.42;1.52;;;;;;;19.43;59.33;100557.77;2279535;76;22365;-78
2023/10/15 04:38:35;;;;;;;4.20;1.90;;;;;;;19.43;59.31;100561.80;2229456;77;50955;-72
2023/10/15 04:41:34;;;;;;;2.87;1.87;;;;;;;19.42;59.33;100554.27;2277466;76;22334;-73
2023/10/15 04:44:36;;;;;;;4.72;1.62;;;;;;;19.43;59.30;100557.77;2277513;77;51582;-73
2023/10/15 04:47:41;;;;;;;2.77;1.65;;;;;;;19.41;59.30;100558.47;2209769;76;51924;-73
2023/10/15 04:50:45;;;;;;;4.37;1.75;;;;;;;19.40;59.33;100562.19;2278633;77;22327;-73
2023/10/15 04:53:50;;;;;;;;;;;;;;;19.40;59.34;100562.19;2302277;76;50709;-73
2023/10/15 04:56:54;;;;;;;2.75;1.82;;;;;;;19.43;59.33;100559.94;2253349;77;52436;-73
2023/10/15 04:59:57;;;;;;;2.60;1.62;;;;;;;19.39;59.28;100561.84;2299336;76;50746;-73
2023/10/15 05:02:59;;;;;;;2.92;1.72;;;;;;;19.41;59.27;100563.84;2251092;77;51491;-73
2023/10/15 05:06:06;;;;;;;4.58;2.10;;;;;;;19.39;59.30;100560.50;2277216;76;50740;-73
2023/10/15 05:09:20;;;;;;;3.70;1.70;;;;;;;19.36;59.26;100561.20;2260698;77;51601;-76
2023/10/15 05:12:13;;;;;;;3.58;1.85;;;;;;;19.38;59.29;100561.54;2258991;76;22438;-73
2023/10/15 05:15:15;;;;;;;3.02;1.60;;;;;;;19.37;59.27;100559.37;2252586;76;51459;-75
2023/10/15 05:18:18;;;;;;;3.40;1.67;;;;;;;19.38;59.23;100564.22;2252618;77;50217;-75
2023/10/15 05:21:20;;;;;;;4.17;1.87;;;;;;;19.38;59.25;100569.59;2298521;76;50498;-73
2023/10/15 05:24:23;;;;;;;2.95;1.82;;;;;;;19.38;59.21;100573.61;2252468;77;50244;-74
2023/10/15 05:27:25;;;;;;;3.40;1.90;;;;;;;19.36;59.21;100575.95;2277532;76;50230;-73
2023/10/15 05:30:27;;;;;;;3.25;1.60;;;;;;;19.36;59.17;100577.81;2277298;77;50327;-73
2023/10/15 05:33:29;;;;;;;3.25;1.60;;;;;;;19.35;59.21;100579.67;2275395;77;50387;-72
2023/10/15 05:36:31;;;;;;;3.45;1.55;;;;;;;19.35;59.19;100584.22;2234195;77;49532;-72
2023/10/15 05:39:34;;;;;;;3.17;1.72;;;;;;;19.36;59.15;100588.55;2234035;77;51646;-72
2023/10/15 05:42:36;;;;;;;2.95;1.85;;;;;;;19.35;59.16;100597.11;2296593;77;50346;-73
2023/10/15 05:45:39;;;;;;;2.70;1.75;;;;;;;19.34;59.16;100592.78;2235899;76;51243;-76
2023/10/15 05:48:41;;;;;;;3.55;1.50;;;;;;;19.33;59.16;100588.41;2278778;77;50671;-74
2023/10/15 05:51:43;;;;;;;3.40;1.32;;;;;;;19.34;59.11;100591.44;2278189;77;51412;-75
2023/10/15 05:54:47;;;;;;;3.72;1.65;;;;;;;19.35;59.07;100598.45;2252771;77;51450;-76
2023/10/15 05:57:49;;;;;;;4.87;2.10;;;;;;;19.34;59.07;100600.83;2299044;76;50153;-75
2023/10/15 06:00:52;;;;;;;4.17;1.85;;;;;;;19.34;59.07;100602.66;2304625;76;51589;-75
2023/10/15 06:03:54;;;;;;;3.52;1.55;;;;;;;19.33;59.08;100599.15;2300328;76;50667;-74
2023/10/15 06:06:57;;;;;;;2.90;1.55;;;;;;;19.33;59.08;100596.47;2299912;76;50260;-74
2023/10/15 06:09:59;;;;;;;3.42;1.60;;;;;;;19.33;59.09;100605.86;2304254;76;51567;-74
2023/10/15 06:13:01;;;;;;;3.65;1.85;;;;;;;19.32;59.09;100593.47;2253318;76;50537;-75
2023/10/15 06:16:04;;;;;;;3.37;1.60;;;;;;;19.33;59.04;100591.62;2299488;76;49805;-75
2023/10/15 06:19:06;;;;;;;4.28;1.75;;;;;;;19.33;59.02;100597.81;2253729;77;50632;-77
2023/10/15 06:22:08;;;;;;;2.92;1.62;;;;;;;19.34;59.02;100593.27;2299874;77;50594;-76
2023/10/15 06:25:16;;;;;;;3.70;1.52;;;;;;;19.34;59.04;100604.00;2304040;76;51077;-76
2023/10/15 06:28:15;;;;;;;3.22;1.60;;;;;;;19.33;59.03;100593.78;2276871;77;22177;-77
2023/10/15 06:31:17;;;;;;;2.85;1.57;;;;;;;19.34;59.00;100596.80;2300607;77;50250;-76
2023/10/15 06:34:19;;;;;;;2.65;1.60;;;;;;;19.36;58.97;100601.97;2235893;76;51690;-76
2023/10/15 06:37:22;;;;;;;3.33;1.55;;;;;;;19.38;58.90;100605.30;2280137;77;50733;-75
2023/10/15 06:40:24;;;;;;;4.00;1.57;;;;;;;19.39;58.87;100609.63;2280776;76;50110;-76
2023/10/15 06:43:27;;;;;;;3.40;1.50;;;;;;;19.42;58.73;100622.69;2269248;77;50747;-76
2023/10/15 06:46:31;;;;;;;2.95;1.42;;;;;;;19.42;58.75;100615.12;2299872;76;50697;-75
2023/10/15 06:49:33;;;;;;;2.50;1.57;;;;;;;19.45;58.79;100630.88;2258375;77;50781;-75
2023/10/15 06:52:38;;;;;;;3.40;1.67;;;;;;;19.46;58.79;100628.50;2266598;76;50724;-77
2023/10/15 06:55:42;;;;;;;2.62;1.52;;;;;;;19.45;58.77;100620.14;2299606;76;51530;-76
2023/10/15 06:58:45;;;;;;;3.83;1.55;;;;;;;19.45;58.76;100626.84;2218500;76;51734;-76
2023/10/15 07:01:47;;;;;;;3.77;1.60;;;;;;;19.45;58.78;100631.70;2298830;76;50309;-76
2023/10/15 07:04:49;;;;;;;2.62;1.52;;;;;;;19.45;58.79;100629.02;2297259;76;50324;-77
2023/10/15 07:07:51;;;;;;;2.92;1.62;;;;;;;19.46;58.70;100630.66;2259365;77;50400;-76
2023/10/15 07:10:53;;;;;;;3.60;1.55;;;;;;;19.47;58.72;100632.84;2297802;77;51800;-75
2023/10/15 07:13:56;;;;;;;3.02;1.60;;;;;;;19.45;58.70;100629.02;2259248;77;50247;-76
2023/10/15 07:16:58;;;;;;;2.80;1.50;;;;;;;19.46;58.68;100638.72;2276648;77;50260;-76
2023/10/15 07:20:00;;;;;;;2.40;1.37;;;;;;;19.46;58.67;100643.26;2276291;76;51492;-76
2023/10/15 07:23:02;;;;;;;2.83;1.42;;;;;;;19.45;58.69;100642.44;2209049;77;52346;-73
2023/10/15 07:26:05;;;;;;;2.35;1.32;;;;;;;19.45;58.71;100651.83;2275503;77;51357;-72
2023/10/15 07:29:07;;;;;;;2.77;1.47;;;;;;;19.45;58.69;100652.34;2250530;77;51376;-72
2023/10/15 07:32:10;;;;;;;3.87;1.50;;;;;;;19.42;58.67;100649.52;2235535;77;50725;-74
2023/10/15 07:35:13;;;;;;;5.47;1.50;;;;;;;19.43;58.68;100649.84;2298038;76;51522;-74
2023/10/15 07:38:15;;;;;;;2.75;1.57;;;;;;;19.42;58.73;100654.03;2298491;76;51485;-73
2023/10/15 07:41:17;;;;;;;4.15;1.42;;;;;;;19.44;58.68;100652.00;2277228;77;51416;-73
2023/10/15 07:44:20;;;;;;;3.27;1.30;;;;;;;19.45;58.63;100659.05;2276964;77;50314;-73
2023/10/15 07:47:22;;;;;;;2.92;1.60;;;;;;;19.44;58.64;100658.70;2302794;75;52398;-73
2023/10/15 07:50:24;;;;;;;2.35;1.37;;;;;;;19.45;58.63;100672.47;2277265;77;51397;-73
2023/10/15 07:53:26;;;;;;;2.50;1.42;;;;;;;19.44;58.65;100674.30;2252473;76;51441;-73
2023/10/15 07:56:29;;;;;;;3.80;1.50;;;;;;;19.43;58.65;100676.67;2252419;77;51473;-73
2023/10/15 07:59:31;;;;;;;2.83;1.40;;;;;;;19.44;58.62;100676.98;2277206;77;51464;-72
2023/10/15 08:02:35;;;;;;;4.03;1.40;;;;;;;19.44;58.61;100676.98;2235016;77;52620;-72
2023/10/15 08:05:39;;;;;;;2.33;1.25;;;;;;;19.45;58.56;100688.56;2275769;76;50307;-72
2023/10/15 08:08:42;;;;;;;2.15;1.35;;;;;;;19.45;58.51;100680.52;2296911;77;22911;-72
2023/10/15 08:11:45;;;;;;;3.25;1.98;;;;;;;19.44;58.53;100677.49;2300846;76;49625;-73
2023/10/15 08:14:47;;;;;;;2.62;1.45;;;;;;;19.45;58.47;100691.25;2296444;77;51541;-72
2023/10/15 08:17:50;;;;;;;3.12;1.45;;;;;;;19.44;58.48;100686.89;2296472;76;51577;-72
2023/10/15 08:20:52;;;;;;;2.47;1.40;;;;;;;19.43;58.52;100687.41;2250612;77;50605;-72
2023/10/15 08:23:54;;;;;;;3.25;1.40;;;;;;;19.43;58.57;100693.28;2250218;76;50413;-72
2023/10/15 08:26:56;;;;;;;3.25;1.47;;;;;;;19.42;58.62;100695.14;2300842;76;50071;-71
2023/10/15 08:29:58;;;;;;;3.27;1.35;;;;;;;19.43;58.53;100697.31;2296569;77;51505;-73
2023/10/15 08:33:01;;;;;;;2.52;1.57;;;;;;;19.42;58.49;100702.34;2232669;77;51443;-73
2023/10/15 08:36:03;;;;;;;4.10;2.00;;;;;;;19.42;58.46;100709.05;2252261;77;52341;-72
2023/10/15 08:39:10;;;;;;;2.95;1.35;;;;;;;19.41;58.51;100703.37;2257060;76;50631;-73
2023/10/15 08:42:17;;;;;;;3.58;1.65;;;;;;;19.42;58.44;100715.75;2276606;77;22191;-72
2023/10/15 08:45:21;;;;;;;2.92;1.40;;;;;;;19.41;58.45;100714.09;2298501;76;50647;-72
2023/10/15 08:48:25;;;;;;;4.47;1.40;;;;;;;19.41;58.45;100715.44;2298802;76;22826;-73
2023/10/15 08:51:28;;;;;;;1.92;1.10;;;;;;;19.41;58.41;100722.15;2232949;76;51726;-73
2023/10/15 08:54:30;;;;;;;3.25;1.30;;;;;;;19.41;58.43;100712.76;2277193;77;51635;-72
2023/10/15 08:57:33;;;;;;;2.52;1.25;;;;;;;19.39;58.38;100725.52;2298495;76;51426;-73
2023/10/15 09:00:36;;;;;;;3.50;1.65;;;;;;;19.39;58.42;100719.64;2237627;77;51723;-72
2023/10/15 09:03:39;;;;;;;2.80;1.60;;;;;;;19.39;58.40;100724.18;2297131;77;50317;-72
2023/10/15 09:06:42;;;;;;;3.20;1.30;;;;;;;19.38;58.34;100721.19;2296717;76;51514;-71
2023/10/15 09:09:44;;;;;;;2.60;1.20;;;;;;;19.40;58.33;100715.13;2296804;76;51460;-73
2023/10/15 09:12:47;;;;;;;2.30;1.25;;;;;;;19.41;58.25;100716.78;2296560;76;50625;-72
2023/10/15 09:15:55;;;;;;;3.25;1.30;;;;;;;19.40;58.31;100713.79;2300947;76;52604;-73
2023/10/15 09:18:57;;;;;;;2.87;1.50;;;;;;;19.39;58.33;100720.98;2273936;77;22501;-72
2023/10/15 09:21:59;;;;;;;4.00;1.50;;;;;;;19.39;58.30;100730.38;2297002;77;51583;-74
2023/10/15 09:25:02;;;;;;;3.67;1.20;;;;;;;19.40;58.26;100734.73;2231796;76;52306;-73
2023/10/15 09:28:05;;;;;;;3.75;1.60;;;;;;;19.40;58.25;100741.97;2258545;77;51394;-73
2023/10/15 09:31:13;;;;;;;3.00;1.45;;;;;;;19.40;58.25;100739.28;2296990;76;51551;-72
2023/10/15 09:34:12;;;;;;;2.60;1.27;;;;;;;19.39;58.25;100734.91;2296719;76;22289;-74
2023/10/15 09:37:15;;;;;;;2.40;1.32;;;;;;;19.39;58.28;100740.28;2275571;76;50384;-74
2023/10/15 09:40:23;;;;;;;2.62;1.27;;;;;;;19.38;58.27;100740.80;2296616;77;51477;-72
2023/10/15 09:43:28;;;;;;;3.00;1.20;;;;;;;19.38;58.26;100744.82;2276008;77;51605;-73
2023/10/15 09:46:30;;;;;;;2.72;1.10;;;;;;;19.36;58.28;100747.67;2296645;76;50634;-72
2023/10/15 09:49:32;;;;;;;2.77;1.20;;;;;;;19.36;58.29;100751.70;2300686;76;52431;-73
2023/10/15 09:52:35;;;;;;;3.00;1.50;;;;;;;19.37;58.27;100767.31;2296388;77;50289;-72
2023/10/15 09:55:40;;;;;;;2.25;1.27;;;;;;;19.36;58.28;100761.61;2296661;76;51453;-73
2023/10/15 09:58:43;;;;;;;2.58;1.20;;;;;;;19.35;58.26;100758.09;2296493;77;51516;-73
2023/10/15 10:01:50;;;;;;;2.12;1.10;;;;;;;19.35;58.24;100765.32;2296994;77;50228;-73
2023/10/15 10:05:16;;;;;;;3.08;1.47;;;;;;;19.36;58.25;100775.02;2302124;76;52442;-73
2023/10/15 10:08:16;;;;;;;2.25;1.05;;;;;;;19.35;58.24;100780.08;2304916;76;22239;-72
2023/10/15 10:11:30;;;;;;;2.25;1.30;;;;;;;19.35;58.26;100780.08;2306312;76;50495;-73
2023/10/15 10:14:53;;;;;;;1.72;1.00;;;;;;;19.35;58.23;100780.08;2301024;76;51236;-73
2023/10/15 10:17:55;;;;;;;3.12;1.22;;;;;;;19.32;58.23;100769.20;2306233;76;51541;-73
2023/10/15 10:21:00;;;;;;;1.92;1.20;;;;;;;19.32;58.20;100774.57;2306405;77;51404;-73
2023/10/15 10:24:02;;;;;;;2.77;1.45;;;;;;;19.31;58.22;100780.94;2275944;77;22284;-73
2023/10/15 10:27:07;;;;;;;3.87;1.17;;;;;;;19.32;58.19;100773.23;2270372;77;51544;-72
2023/10/15 10:30:30;;;;;;;3.08;1.35;;;;;;;19.32;58.24;100776.43;2276875;77;22290;-76
2023/10/15 10:33:50;;;;;;;2.47;1.27;;;;;;;19.31;58.27;100780.94;2241506;77;52600;-74
2023/10/15 10:36:55;;;;;;;3.15;1.42;;;;;;;19.30;58.24;100777.94;2299775;76;51795;-76
2023/10/15 10:39:58;;;;;;;3.52;1.25;;;;;;;19.30;58.27;100773.92;2235796;76;51637;-76
2023/10/15 10:43:02;;;;;;;3.45;1.25;;;;;;;19.31;58.28;100772.89;2301400;76;50774;-76
2023/10/15 10:46:06;;;;;;;3.58;1.22;;;;;;;19.31;58.25;100765.36;2301442;76;50658;-76
2023/10/15 10:49:20;;;;;;;1.75;1.02;;;;;;;19.30;58.23;100762.36;2256296;77;22271;-75
2023/10/15 10:52:23;;;;;;;2.60;1.02;;;;;;;19.30;58.25;100766.38;2300056;76;21883;-75
2023/10/15 10:55:31;;;;;;;2.27;1.10;;;;;;;19.28;58.28;100758.51;2235323;76;52541;-74
2023/10/15 10:58:35;;;;;;;2.17;1.10;;;;;;;19.28;58.30;100766.55;2300882;76;50785;-75
2023/10/15 11:01:40;;;;;;;1.72;1.20;;;;;;;19.28;58.30;100761.70;2258575;77;50644;-76
2023/10/15 11:04:43;;;;;;;1.25;1.00;;;;;;;19.29;58.31;100757.51;2244011;77;51758;-75
2023/10/15 11:07:47;;;;;;;4.08;1.35;;;;;;;19.27;58.29;100762.73;2260197;77;51524;-76
2023/10/15 11:10:49;;;;;;;2.77;1.50;;;;;;;19.27;58.28;100751.49;2299509;76;22292;-75
2023/10/15 11:13:52;;;;;;;2.05;1.20;;;;;;;19.27;58.26;100750.66;2299528;77;50656;-76
2023/10/15 11:16:57;;;;;;;1.70;1.10;;;;;;;19.28;58.27;100750.45;2298269;76;50723;-75
2023/10/15 11:20:00;;;;;;;1.00;0.70;;;;;;;19.29;58.24;100746.78;2252798;77;51572;-77
2023/10/15 11:23:04;;;;;;;2.98;1.20;;;;;;;19.28;58.28;100742.41;2296993;77;51446;-76
2023/10/15 11:26:08;;;;;;;2.15;1.20;;;;;;;19.30;58.18;100754.31;2251820;77;22261;-75
2023/10/15 11:29:10;;;;;;;2.05;1.05;;;;;;;19.29;58.18;100746.78;2259620;77;22379;-75
2023/10/15 11:32:12;;;;;;;2.00;1.05;;;;;;;19.31;58.14;100746.57;2259504;77;51583;-70
2023/10/15 11:35:19;;;;;;;1.80;1.00;;;;;;;19.29;58.18;100745.44;2297271;76;51473;-75
2023/10/15 11:38:21;;;;;;;1.80;0.95;;;;;;;19.29;58.24;100749.94;2275759;76;50326;-75
2023/10/15 11:41:24;;;;;;;2.15;0.90;;;;;;;19.29;58.19;100747.27;2275927;77;50644;-76
2023/10/15 11:44:30;;;;;;;1.52;1.05;;;;;;;19.26;58.23;100746.30;2258921;77;52153;-76
2023/10/15 11:47:32;;;;;;;1.72;1.10;;;;;;;19.26;58.29;100747.64;2259681;77;22935;-76
2023/10/15 11:50:34;;;;;;;2.27;1.25;;;;;;;19.26;58.27;100754.34;2297359;77;22285;-76
2023/10/15 11:53:36;;;;;;;1.92;0.93;;;;;;;19.25;58.29;100760.22;2275741;77;50544;-76
2023/10/15 11:56:39;;;;;;;2.10;1.05;;;;;;;19.25;58.28;100753.52;2251104;77;49857;-77
2023/10/15 11:59:41;;;;;;;1.80;0.85;;;;;;;19.26;58.23;100757.85;2297246;77;50398;-78
2023/10/15 12:02:43;;;;;;;1.92;1.00;;;;;;;19.26;58.25;100762.39;2302209;76;52424;-77
2023/10/15 12:05:46;;;;;;;1.22;0.90;;;;;;;19.24;58.30;100757.72;2275950;76;50673;-76
2023/10/15 12:08:48;;;;;;;2.05;1.02;;;;;;;19.25;58.26;100756.72;2251230;77;50982;-76
2023/10/15 12:11:51;;;;;;;2.65;1.00;;;;;;;19.24;58.26;100745.64;2302638;76;52900;-74
2023/10/15 12:14:54;;;;;;;1.40;1.10;;;;;;;19.23;58.31;100752.86;2298683;77;51456;-75
2023/10/15 12:17:56;;;;;;;1.40;0.90;;;;;;;19.24;58.28;100753.69;2298646;76;50840;-76
2023/10/15 12:20:59;;;;;;;1.42;0.95;;;;;;;19.22;58.30;100760.60;2252940;77;50717;-76
2023/10/15 12:24:03;;;;;;;2.50;1.02;;;;;;;19.22;58.30;100753.06;2276927;77;50760;-76
2023/10/15 12:27:05;;;;;;;1.30;0.90;;;;;;;19.24;58.24;100753.20;2297695;76;51420;-76
2023/10/15 12:30:19;;;;;;;1.67;1.00;;;;;;;19.24;58.21;100757.72;2259608;77;51941;-76
2023/10/15 12:33:15;;;;;;;2.55;1.00;;;;;;;19.24;58.28;100765.77;2294196;76;22191;-76
2023/10/15 12:36:16;;;;;;;1.75;1.00;;;;;;;19.25;58.23;100761.56;2260784;77;21993;-74
2023/10/15 12:39:26;;;;;;;2.25;1.00;;;;;;;19.24;57.99;100754.55;2297890;77;51494;-76
2023/10/15 12:42:23;;;;;;;2.33;1.15;;;;;;;19.24;58.00;100755.89;2250462;76;22321;-74
2023/10/15 12:45:26;;;;;;;2.50;1.25;;;;;;;19.25;58.13;100756.20;2298162;76;50740;-76
2023/10/15 12:48:29;;;;;;;2.12;1.15;;;;;;;19.24;58.11;100743.82;2298069;77;51442;-76
2023/10/15 12:51:31;;;;;;;1.92;1.10;;;;;;;19.24;58.11;100738.45;2252490;77;49866;-75
2023/10/15 12:54:34;;;;;;;2.85;1.20;;;;;;;19.25;58.01;100742.78;2276661;77;50296;-78
2023/10/15 12:57:36;;;;;;;2.25;0.90;;;;;;;19.27;57.88;100749.32;2297967;76;51427;-76
2023/10/15 13:00:43;;;;;;;1.90;1.05;;;;;;;19.25;57.88;100745.47;2235237;77;52679;-76
2023/10/15 13:03:47;;;;;;;1.95;1.10;;;;;;;19.23;57.89;100742.13;2278968;76;24886;-76
2023/10/15 13:06:49;;;;;;;1.60;0.80;;;;;;;19.23;58.01;100755.55;2299740;76;50603;-76
2023/10/15 13:09:51;;;;;;;1.85;0.93;;;;;;;19.22;58.12;100747.70;2278313;76;50299;-76
2023/10/15 13:12:59;;;;;;;2.72;1.30;;;;;;;19.21;58.15;100747.36;2278323;77;50606;-76
2023/10/15 13:15:57;;;;;;;2.55;1.02;;;;;;;19.20;58.19;100758.60;2298707;76;23150;-76
2023/10/15 13:18:59;;;;;;;1.55;0.90;;;;;;;19.20;58.19;100751.07;2300356;77;50370;-76
2023/10/15 13:22:04;;;;;;;1.92;1.07;;;;;;;19.18;58.20;100751.25;2278673;76;50676;-76
2023/10/15 13:25:06;;;;;;;1.67;0.90;;;;;;;19.22;58.11;100753.89;2300136;76;21816;-74
2023/10/15 13:28:09;;;;;;;2.02;1.00;;;;;;;19.22;58.10;100749.88;2261820;77;51506;-76
2023/10/15 13:31:11;;;;;;;2.42;0.93;;;;;;;19.22;58.11;100750.39;2280028;77;50508;-77
2023/10/15 13:34:14;;;;;;;1.82;1.10;;;;;;;19.24;57.94;100755.03;2298575;76;50632;-74
2023/10/15 13:37:17;;;;;;;1.60;1.10;;;;;;;19.23;57.93;100746.67;2299335;76;51537;-76
2023/10/15 13:40:21;;;;;;;2.62;1.30;;;;;;;19.25;57.92;100746.81;2303988;76;49672;-76
2023/10/15 13:43:24;;;;;;;2.12;1.12;;;;;;;19.22;57.77;100749.05;2278313;76;50287;-76
2023/10/15 13:46:26;;;;;;;1.22;1.00;;;;;;;19.22;57.80;100747.70;2278086;77;50757;-76
2023/10/15 13:49:29;;;;;;;1.60;0.98;;;;;;;19.22;57.80;100756.58;2303056;76;50121;-76
2023/10/15 13:52:31;;;;;;;2.10;0.90;;;;;;;19.19;57.84;100759.63;2277435;77;51503;-76
2023/10/15 13:55:33;;;;;;;1.72;0.90;;;;;;;19.19;57.87;100756.09;2298595;76;49980;-76
2023/10/15 13:58:35;;;;;;;1.77;1.17;;;;;;;19.20;57.88;100752.41;2252821;77;51591;-75
2023/10/15 14:01:37;;;;;;;1.37;0.80;;;;;;;19.19;57.95;100749.39;2298079;76;50444;-76
2023/10/15 14:04:42;;;;;;;1.98;1.10;;;;;;;19.19;57.96;100756.95;2241398;77;50888;-76
2023/10/15 14:07:47;;;;;;;1.15;0.90;;;;;;;19.22;57.90;100756.58;2251395;76;22782;-77
2023/10/15 14:10:50;;;;;;;1.35;0.80;;;;;;;19.21;57.97;100763.45;2296854;77;50621;-77
2023/10/15 14:13:53;;;;;;;2.60;1.00;;;;;;;19.20;57.90;100768.51;2300906;76;52438;-76
2023/10/15 14:16:56;;;;;;;2.20;1.20;;;;;;;19.17;57.89;100762.17;2298104;76;51384;-76
2023/10/15 14:19:59;;;;;;;1.57;0.98;;;;;;;19.17;57.90;100762.17;2253005;77;50759;-74
2023/10/15 14:23:01;;;;;;;1.45;0.98;;;;;;;19.15;57.96;100775.25;2252715;76;49879;-76